Time;durP1;ratioP1;P1;durP2;ratioP2;P2;SDS_P1;SDS_P2;PMS_P1;PMS_P2;Temp;Humidity;BMP_temperature;BMP_pressure;BME280_temperature;BME280_humidity;BME280_pressure;Samples;Min_cycle;Max_cycle;Signal;HPM_P1;HPM_P2
2023/07/11 00:01:43;;;;;;;6.25;1.63;;;18.20;99.90;;;;;;4925425;29;20106;-81
2023/07/11 00:04:08;;;;;;;9.55;1.55;;;18.20;99.90;;;;;;4933576;29;20039;-81
2023/07/11 00:06:34;;;;;;;6.18;1.50;;;18.20;99.90;;;;;;4927992;29;20091;-81
2023/07/11 00:08:59;;;;;;;7.15;1.75;;;18.30;99.90;;;;;;4906852;29;20489;-81
2023/07/11 00:11:25;;;;;;;7.25;1.48;;;18.30;99.90;;;;;;4912630;29;20107;-81
2023/07/11 00:13:51;;;;;;;9.00;2.05;;;18.30;99.90;;;;;;4926095;29;20191;-81
2023/07/11 00:16:18;;;;;;;10.38;1.50;;;18.30;99.90;;;;;;4926796;29;20053;-81
2023/07/11 00:18:44;;;;;;;6.00;2.00;;;18.30;99.90;;;;;;4907685;29;20054;-81
2023/07/11 00:21:11;;;;;;;9.57;1.45;;;18.30;99.90;;;;;;4922588;29;20063;-81
2023/07/11 00:23:37;;;;;;;8.60;1.42;;;18.20;99.90;;;;;;4927199;29;20106;-81
2023/07/11 00:26:03;;;;;;;7.78;1.65;;;18.30;99.90;;;;;;4925713;29;20075;-81
2023/07/11 00:28:29;;;;;;;7.78;1.38;;;18.30;99.90;;;;;;4926740;29;20031;-81
2023/07/11 00:30:54;;;;;;;9.00;1.65;;;18.30;99.90;;;;;;4925305;29;20616;-81
2023/07/11 00:33:20;;;;;;;6.28;1.50;;;18.50;99.90;;;;;;4926379;29;20073;-79
2023/07/11 00:35:49;;;;;;;10.40;1.50;;;18.50;99.90;;;;;;4936809;29;20052;-81
2023/07/11 00:38:15;;;;;;;8.10;1.60;;;18.60;99.90;;;;;;4924038;28;20855;-79
2023/07/11 00:40:42;;;;;;;8.68;1.42;;;18.60;99.90;;;;;;4927423;29;20130;-79
2023/07/11 00:43:14;;;;;;;7.63;1.77;;;18.70;99.90;;;;;;4922102;29;20062;-81
2023/07/11 00:45:49;;;;;;;8.90;1.48;;;18.80;99.90;;;;;;4924252;29;20163;-80
2023/07/11 00:48:20;;;;;;;9.90;1.70;;;18.80;99.90;;;;;;4918444;29;20092;-80
2023/07/11 00:50:46;;;;;;;7.68;1.30;;;18.70;99.90;;;;;;4926194;29;20468;-80
2023/07/11 00:53:13;;;;;;;5.78;1.40;;;18.70;99.90;;;;;;4927902;29;20032;-81
2023/07/11 00:55:38;;;;;;;7.18;1.70;;;18.60;99.90;;;;;;4927659;29;20118;-78
2023/07/11 00:58:05;;;;;;;10.27;1.65;;;18.50;99.90;;;;;;4929193;29;20829;-80
2023/07/11 01:00:31;;;;;;;16.35;1.60;;;18.50;99.90;;;;;;4927358;29;20048;-80
2023/07/11 01:02:57;;;;;;;3.33;1.17;;;18.50;99.90;;;;;;4927871;29;20036;-79
2023/07/11 01:05:22;;;;;;;5.88;1.48;;;18.50;99.90;;;;;;4927249;29;20529;-80
2023/07/11 01:07:48;;;;;;;4.55;1.45;;;18.50;99.90;;;;;;4928066;29;20146;-79
2023/07/11 01:10:14;;;;;;;7.68;1.60;;;18.70;99.90;;;;;;4923953;29;20431;-80
2023/07/11 01:12:47;;;;;;;5.80;1.77;;;18.70;99.90;;;;;;4940944;28;20027;-79
2023/07/11 01:15:14;;;;;;;7.00;1.20;;;18.80;99.90;;;;;;4928804;29;20036;-79
2023/07/11 01:17:40;;;;;;;9.20;1.90;;;18.80;99.90;;;;;;4929346;29;20107;-79
2023/07/11 01:20:08;;;;;;;4.85;1.65;;;18.80;99.90;;;;;;4928575;29;20027;-79
2023/07/11 01:22:36;;;;;;;6.07;1.40;;;18.80;99.90;;;;;;4928738;29;20122;-78
2023/07/11 01:25:11;;;;;;;7.55;1.55;;;18.90;99.90;;;;;;4928539;29;20102;-79
2023/07/11 01:27:38;;;;;;;12.65;1.60;;;18.90;99.90;;;;;;4927750;29;20027;-80
2023/07/11 01:30:06;;;;;;;6.80;1.50;;;18.90;99.90;;;;;;4940926;29;20422;-80
2023/07/11 01:32:32;;;;;;;6.30;1.60;;;18.90;99.90;;;;;;4941724;29;20455;-80
2023/07/11 01:34:57;;;;;;;7.85;2.08;;;18.90;99.90;;;;;;4892091;29;1099455;-81
2023/07/11 01:37:23;;;;;;;5.68;1.38;;;18.90;99.90;;;;;;4930468;29;20078;-77
2023/07/11 01:39:49;;;;;;;8.07;1.67;;;18.90;99.90;;;;;;4928549;29;20032;-79
2023/07/11 01:42:14;;;;;;;7.00;1.65;;;18.90;99.90;;;;;;4927312;29;20032;-79
2023/07/11 01:44:40;;;;;;;3.78;1.55;;;18.80;99.90;;;;;;4929761;29;20408;-81
2023/07/11 01:47:07;;;;;;;4.95;1.52;;;18.70;99.90;;;;;;4929918;29;20040;-80
2023/07/11 01:49:32;;;;;;;7.13;1.33;;;18.60;99.90;;;;;;4929397;29;20043;-79
2023/07/11 01:52:23;;;;;;;7.68;1.50;;;18.50;99.90;;;;;;4927606;29;20043;-80
2023/07/11 01:54:50;;;;;;;10.82;1.63;;;18.50;99.90;;;;;;4928875;29;20035;-79
2023/07/11 01:57:16;;;;;;;5.35;1.60;;;18.50;99.90;;;;;;4929081;29;20051;-78
2023/07/11 01:59:43;;;;;;;4.97;1.35;;;18.60;99.90;;;;;;4927170;29;20047;-78
2023/07/11 02:02:10;;;;;;;9.95;2.20;;;18.60;99.90;;;;;;4928929;29;20044;-79
2023/07/11 02:04:36;;;;;;;7.80;1.58;;;18.70;99.90;;;;;;4927204;29;20028;-79
2023/07/11 02:07:04;;;;;;;5.97;1.67;;;18.70;99.90;;;;;;4928186;29;20031;-78
2023/07/11 02:09:29;;;;;;;10.38;1.70;;;18.70;99.90;;;;;;4925117;29;20038;-79
2023/07/11 02:11:55;;;;;;;6.78;1.70;;;18.70;99.90;;;;;;4923406;29;20065;-79
2023/07/11 02:14:21;;;;;;;7.53;1.48;;;18.90;99.90;;;;;;4928632;29;20036;-80
2023/07/11 02:16:49;;;;;;;10.95;2.00;;;18.90;99.90;;;;;;4926526;29;20083;-81
2023/07/11 02:19:17;;;;;;;10.82;1.90;;;19.00;99.90;;;;;;4942909;29;20036;-80
2023/07/11 02:21:43;;;;;;;7.60;1.95;;;19.10;99.90;;;;;;4918874;29;20261;-80
2023/07/11 02:24:10;;;;;;;7.28;1.60;;;19.10;99.90;;;;;;4920640;29;20061;-79
2023/07/11 02:26:36;;;;;;;9.52;1.70;;;19.10;99.90;;;;;;4928768;29;20705;-83
2023/07/11 02:29:03;;;;;;;8.85;1.77;;;19.20;99.90;;;;;;4927738;29;20042;-81
2023/07/11 02:31:30;;;;;;;11.98;1.85;;;19.20;99.90;;;;;;4926029;29;20046;-78
2023/07/11 02:33:56;;;;;;;8.55;1.88;;;19.10;99.90;;;;;;4914777;29;20056;-80
2023/07/11 02:36:22;;;;;;;8.55;2.22;;;19.10;99.90;;;;;;4923256;29;20046;-79
2023/07/11 02:38:47;;;;;;;8.05;1.75;;;19.10;99.90;;;;;;4926655;29;20043;-81
2023/07/11 02:41:13;;;;;;;8.00;1.98;;;19.10;99.90;;;;;;4927648;29;20044;-82
2023/07/11 02:43:39;;;;;;;7.90;1.70;;;19.10;99.90;;;;;;4928842;29;20055;-81
2023/07/11 02:46:04;;;;;;;6.30;1.52;;;19.10;99.90;;;;;;4926998;29;20043;-80
2023/07/11 02:48:30;;;;;;;7.50;1.70;;;19.10;99.90;;;;;;4926747;29;20035;-80
2023/07/11 02:50:56;;;;;;;8.95;1.90;;;19.10;99.90;;;;;;4928507;29;20626;-80
2023/07/11 02:53:21;;;;;;;7.35;1.88;;;19.10;99.90;;;;;;4926436;29;20058;-82
2023/07/11 02:55:51;;;;;;;11.52;2.08;;;19.10;99.90;;;;;;4923101;29;20032;-80
2023/07/11 02:58:16;;;;;;;8.27;1.73;;;19.00;99.90;;;;;;4924838;29;20023;-80
2023/07/11 03:00:50;;;;;;;10.30;1.88;;;19.00;99.90;;;;;;4923921;29;20398;-80
2023/07/11 03:03:16;;;;;;;9.82;2.00;;;19.00;99.90;;;;;;4923360;29;20542;-80
2023/07/11 03:05:47;;;;;;;9.90;1.52;;;19.00;99.90;;;;;;4918014;29;20035;-80
2023/07/11 03:08:14;;;;;;;8.75;1.70;;;18.90;99.90;;;;;;4936527;29;20135;-79
2023/07/11 03:10:39;;;;;;;9.35;1.80;;;18.90;99.90;;;;;;4930239;29;20043;-81
2023/07/11 03:13:05;;;;;;;10.20;1.88;;;18.90;99.90;;;;;;4944059;29;20042;-80
2023/07/11 03:15:33;;;;;;;10.80;1.75;;;18.90;99.90;;;;;;4921914;29;20047;-82
2023/07/11 03:17:59;;;;;;;10.27;1.98;;;18.90;99.90;;;;;;4925043;29;20884;-80
2023/07/11 03:20:24;;;;;;;6.82;2.20;;;18.90;99.90;;;;;;4923688;29;20075;-80
2023/07/11 03:22:50;;;;;;;8.60;2.03;;;18.90;99.90;;;;;;4925676;29;20039;-81
2023/07/11 03:25:16;;;;;;;7.68;1.58;;;18.90;99.90;;;;;;4923929;29;20114;-80
2023/07/11 03:27:41;;;;;;;10.05;1.90;;;18.80;99.90;;;;;;4925938;29;20090;-80
2023/07/11 03:30:07;;;;;;;9.10;2.33;;;18.90;99.90;;;;;;4925136;29;20127;-80
2023/07/11 03:32:33;;;;;;;9.88;1.80;;;18.90;99.90;;;;;;4924039;29;20031;-81
2023/07/11 03:34:58;;;;;;;9.05;2.05;;;18.90;99.90;;;;;;4924102;29;20480;-80
2023/07/11 03:37:24;;;;;;;9.52;2.00;;;18.90;99.90;;;;;;4923876;29;20437;-82
2023/07/11 03:39:50;;;;;;;7.68;1.83;;;18.80;99.90;;;;;;4939540;29;20063;-79
2023/07/11 03:42:15;;;;;;;9.95;2.20;;;18.80;99.90;;;;;;4918923;29;20044;-80
2023/07/11 03:44:44;;;;;;;12.05;2.08;;;18.80;99.90;;;;;;4919813;29;20099;-82
2023/07/11 03:47:10;;;;;;;10.75;2.50;;;18.80;99.90;;;;;;4925762;29;20027;-81
2023/07/11 03:49:36;;;;;;;13.18;2.10;;;18.80;99.90;;;;;;4924227;29;20058;-82
2023/07/11 03:52:02;;;;;;;10.57;1.73;;;18.80;99.90;;;;;;4924948;29;20068;-82
2023/07/11 03:54:28;;;;;;;7.65;2.00;;;18.80;99.90;;;;;;4919492;29;20412;-82
2023/07/11 03:56:53;;;;;;;11.35;2.33;;;18.80;99.90;;;;;;4905663;29;20024;-79
2023/07/11 03:59:20;;;;;;;10.77;2.25;;;18.80;99.90;;;;;;4921184;29;20055;-80
2023/07/11 04:01:47;;;;;;;5.60;1.58;;;18.80;99.90;;;;;;4924222;29;20114;-79
2023/07/11 04:04:13;;;;;;;11.32;2.20;;;18.80;99.90;;;;;;4925562;29;20035;-78
2023/07/11 04:06:39;;;;;;;6.55;2.22;;;18.80;99.90;;;;;;4924471;29;20039;-81
2023/07/11 04:09:05;;;;;;;7.28;1.90;;;18.80;99.90;;;;;;4924850;29;20866;-82
2023/07/11 04:11:30;;;;;;;7.03;1.77;;;18.70;99.90;;;;;;4924761;29;20590;-79
2023/07/11 04:13:56;;;;;;;7.90;2.08;;;18.70;99.90;;;;;;4921976;29;20077;-81
2023/07/11 04:16:22;;;;;;;11.00;1.90;;;18.70;99.90;;;;;;4914075;29;20043;-78
2023/07/11 04:18:47;;;;;;;10.98;2.30;;;18.70;99.90;;;;;;4927377;29;20540;-81
2023/07/11 04:21:13;;;;;;;7.82;2.15;;;18.70;99.90;;;;;;4928083;29;20028;-82
2023/07/11 04:23:39;;;;;;;13.35;2.47;;;18.60;99.90;;;;;;4929018;29;20114;-81
2023/07/11 04:26:04;;;;;;;7.95;2.30;;;18.50;99.90;;;;;;4929367;29;20475;-78
2023/07/11 04:28:30;;;;;;;9.10;2.10;;;18.50;99.90;;;;;;4927997;29;20061;-79
2023/07/11 04:30:56;;;;;;;12.82;2.33;;;18.40;99.90;;;;;;4917195;29;20027;-81
2023/07/11 04:33:22;;;;;;;7.45;2.22;;;18.30;99.90;;;;;;4923670;29;20032;-80
2023/07/11 04:35:48;;;;;;;15.70;2.53;;;18.20;99.90;;;;;;4932156;29;20106;-80
2023/07/11 04:38:13;;;;;;;8.95;2.22;;;18.10;99.90;;;;;;4940658;28;20059;-79
2023/07/11 04:40:39;;;;;;;14.75;2.60;;;18.10;99.90;;;;;;4910168;29;20062;-78
2023/07/11 04:43:05;;;;;;;6.97;2.05;;;18.00;99.90;;;;;;4915941;29;20103;-80
2023/07/11 04:45:30;;;;;;;10.25;2.50;;;18.00;99.90;;;;;;4929984;29;20334;-77
2023/07/11 04:47:57;;;;;;;8.00;2.10;;;17.90;99.90;;;;;;4929162;29;20062;-79
2023/07/11 04:50:23;;;;;;;12.35;2.42;;;17.80;99.90;;;;;;4926753;29;20713;-78
2023/07/11 04:52:49;;;;;;;9.63;2.83;;;17.80;99.90;;;;;;4927311;29;20062;-79
2023/07/11 04:55:15;;;;;;;8.93;2.47;;;17.80;99.90;;;;;;4928614;29;20036;-80
2023/07/11 04:57:41;;;;;;;7.85;2.35;;;17.80;99.90;;;;;;4929604;29;20032;-80
2023/07/11 05:00:07;;;;;;;11.27;2.83;;;17.80;99.90;;;;;;4929275;29;20032;-79
2023/07/11 05:02:34;;;;;;;9.88;2.83;;;17.80;99.90;;;;;;4926770;29;20044;-80
2023/07/11 05:04:59;;;;;;;11.30;3.22;;;17.80;99.90;;;;;;4926710;29;20036;-81
2023/07/11 05:07:25;;;;;;;11.65;2.70;;;17.80;99.90;;;;;;4926095;29;20043;-82
2023/07/11 05:09:51;;;;;;;13.20;3.10;;;17.70;99.90;;;;;;4930006;29;20054;-78
2023/07/11 05:12:16;;;;;;;14.52;3.25;;;17.70;99.90;;;;;;4945325;29;20035;-80
2023/07/11 05:14:42;;;;;;;11.07;2.45;;;17.80;99.90;;;;;;4926530;29;20856;-80
2023/07/11 05:17:08;;;;;;;8.75;2.28;;;17.80;99.90;;;;;;4904929;29;20039;-80
2023/07/11 05:19:33;;;;;;;10.02;2.20;;;17.80;99.90;;;;;;4917080;29;20031;-82
2023/07/11 05:21:59;;;;;;;10.35;2.35;;;17.80;99.90;;;;;;4928858;29;20051;-80
2023/07/11 05:24:25;;;;;;;12.52;2.90;;;17.90;99.90;;;;;;4943579;29;20584;-81
2023/07/11 05:26:51;;;;;;;12.20;2.38;;;17.90;99.90;;;;;;4929495;29;20043;-80
2023/07/11 05:29:17;;;;;;;8.88;2.33;;;17.90;99.90;;;;;;4927518;29;20089;-80
2023/07/11 05:31:43;;;;;;;9.48;2.10;;;18.00;99.90;;;;;;4925545;29;20019;-80
2023/07/11 05:34:11;;;;;;;12.13;2.20;;;18.00;99.90;;;;;;4909740;29;20856;-78
2023/07/11 05:36:37;;;;;;;7.85;2.05;;;18.10;99.90;;;;;;4910607;29;20040;-80
2023/07/11 05:39:10;;;;;;;7.63;1.50;;;18.10;99.90;;;;;;4910214;29;20047;-80
2023/07/11 05:41:37;;;;;;;7.35;1.33;;;18.20;99.90;;;;;;4926601;29;20191;-80
2023/07/11 05:44:03;;;;;;;2.08;1.08;;;18.30;99.90;;;;;;4927751;29;20101;-81
2023/07/11 05:46:29;;;;;;;4.93;0.88;;;18.30;99.90;;;;;;4912954;29;20039;-81
2023/07/11 05:48:56;;;;;;;2.97;0.93;;;18.50;99.90;;;;;;4910368;29;20039;-80
2023/07/11 05:51:22;;;;;;;2.35;0.90;;;18.50;99.90;;;;;;4926827;29;20183;-80
2023/07/11 05:53:48;;;;;;;6.15;0.93;;;18.50;99.90;;;;;;4922972;29;20051;-81
2023/07/11 05:56:15;;;;;;;2.28;0.68;;;18.50;99.90;;;;;;4926166;29;20075;-80
2023/07/11 05:58:43;;;;;;;2.40;0.60;;;18.50;99.90;;;;;;4908247;29;20396;-80
2023/07/11 06:01:15;;;;;;;3.15;0.65;;;18.50;99.90;;;;;;4925390;29;20039;-81
2023/07/11 06:03:49;;;;;;;4.03;0.60;;;18.50;99.90;;;;;;4926040;29;20028;-81
2023/07/11 06:06:16;;;;;;;1.85;0.50;;;18.60;99.90;;;;;;4939608;29;20036;-80
2023/07/11 06:08:42;;;;;;;2.60;0.47;;;18.70;99.90;;;;;;4923660;29;20028;-81
2023/07/11 06:11:08;;;;;;;1.90;0.70;;;18.80;99.90;;;;;;4925213;29;20133;-81
2023/07/11 06:13:36;;;;;;;2.97;0.60;;;18.90;99.90;;;;;;4927318;29;20635;-79
2023/07/11 06:16:06;;;;;;;5.28;0.70;;;18.90;99.90;;;;;;4926325;29;20376;-80
2023/07/11 06:18:36;;;;;;;2.75;0.50;;;18.80;99.90;;;;;;4935695;29;20055;-81
2023/07/11 06:21:04;;;;;;;2.22;0.57;;;18.80;99.90;;;;;;4921875;29;20063;-80
2023/07/11 06:23:29;;;;;;;1.58;0.60;;;18.60;99.90;;;;;;4925412;29;20111;-81
2023/07/11 06:25:55;;;;;;;3.40;0.50;;;18.50;99.90;;;;;;4925300;29;20115;-79
2023/07/11 06:28:20;;;;;;;1.52;0.50;;;18.50;99.90;;;;;;4925831;29;20129;-80
2023/07/11 06:30:47;;;;;;;4.43;0.60;;;18.40;99.90;;;;;;4925118;29;20141;-80
2023/07/11 06:33:14;;;;;;;2.67;0.60;;;18.30;99.90;;;;;;4924795;29;20028;-82
2023/07/11 06:35:40;;;;;;;4.25;0.60;;;18.40;99.90;;;;;;4923975;29;20044;-79
2023/07/11 06:38:07;;;;;;;2.05;0.60;;;18.50;99.90;;;;;;4925546;29;20036;-81
2023/07/11 06:40:33;;;;;;;4.82;0.80;;;18.60;99.90;;;;;;4924584;29;20471;-81
2023/07/11 06:42:58;;;;;;;4.18;0.65;;;18.80;99.90;;;;;;4923555;29;20047;-81
2023/07/11 06:45:24;;;;;;;3.45;1.17;;;19.00;99.90;;;;;;4922410;29;20035;-82
2023/07/11 06:47:50;;;;;;;7.45;1.25;;;19.10;99.90;;;;;;4926579;29;20035;-81
2023/07/11 06:50:16;;;;;;;3.15;0.47;;;19.20;99.90;;;;;;4925801;29;20063;-80
2023/07/11 06:52:42;;;;;;;2.13;0.90;;;19.10;99.90;;;;;;4941301;28;20063;-82
2023/07/11 06:55:08;;;;;;;3.38;0.63;;;19.10;99.90;;;;;;4927203;29;20095;-80
2023/07/11 06:57:33;;;;;;;3.88;0.70;;;18.90;99.90;;;;;;4923581;29;20051;-80
2023/07/11 06:59:59;;;;;;;1.77;0.55;;;18.70;99.90;;;;;;4921902;29;20050;-80
2023/07/11 07:02:24;;;;;;;1.25;0.60;;;18.60;99.90;;;;;;4912319;29;20126;-79
2023/07/11 07:04:52;;;;;;;5.63;0.68;;;18.70;99.90;;;;;;4922468;29;20447;-80
2023/07/11 07:07:19;;;;;;;1.38;0.60;;;18.80;99.90;;;;;;4921156;29;20066;-81
2023/07/11 07:09:45;;;;;;;5.05;0.82;;;18.90;99.90;;;;;;4932650;29;20535;-82
2023/07/11 07:12:10;;;;;;;4.10;0.90;;;18.90;99.90;;;;;;4934515;29;20031;-82
2023/07/11 07:14:36;;;;;;;5.32;0.88;;;19.10;99.90;;;;;;4922173;29;20028;-81
2023/07/11 07:17:02;;;;;;;3.30;0.88;;;19.00;99.90;;;;;;4926692;29;20461;-81
2023/07/11 07:19:27;;;;;;;2.85;0.95;;;19.10;99.90;;;;;;4921042;29;20036;-78
2023/07/11 07:21:53;;;;;;;3.33;1.08;;;19.10;99.90;;;;;;4917247;29;20062;-81
2023/07/11 07:24:18;;;;;;;2.47;0.75;;;19.40;99.90;;;;;;4930553;29;20034;-80
2023/07/11 07:26:44;;;;;;;2.53;1.15;;;19.20;99.90;;;;;;4926091;29;20030;-78
2023/07/11 07:29:09;;;;;;;2.65;0.90;;;19.30;99.90;;;;;;4926919;29;20024;-81
2023/07/11 07:31:35;;;;;;;3.70;0.80;;;19.40;99.90;;;;;;4926196;29;20094;-81
2023/07/11 07:34:01;;;;;;;3.35;1.00;;;19.50;99.90;;;;;;4919520;29;20040;-79
2023/07/11 07:36:26;;;;;;;4.50;0.90;;;19.70;99.90;;;;;;4926359;29;20058;-81
2023/07/11 07:38:52;;;;;;;6.15;1.27;;;19.70;99.90;;;;;;4925883;29;20107;-81
2023/07/11 07:41:19;;;;;;;3.88;0.95;;;20.10;99.90;;;;;;4920410;29;20155;-79
2023/07/11 07:43:45;;;;;;;2.85;0.85;;;20.50;99.90;;;;;;4917093;29;20451;-79
2023/07/11 07:46:16;;;;;;;4.55;1.10;;;20.80;99.90;;;;;;4917416;29;20060;-77
2023/07/11 07:48:43;;;;;;;5.60;1.30;;;21.30;99.90;;;;;;4914911;29;20059;-81
2023/07/11 07:51:13;;;;;;;2.47;1.00;;;22.20;99.90;;;;;;4923850;29;20578;-80
2023/07/11 07:53:39;;;;;;;5.43;1.63;;;22.80;99.90;;;;;;4921283;29;20016;-81
2023/07/11 07:56:12;;;;;;;2.97;0.75;;;23.50;99.90;;;;;;4916479;29;20050;-81
2023/07/11 07:58:39;;;;;;;6.25;1.45;;;24.00;99.90;;;;;;4922528;29;20035;-80
2023/07/11 08:01:05;;;;;;;4.10;1.40;;;23.90;99.90;;;;;;4923110;29;20064;-81
2023/07/11 08:03:36;;;;;;;4.75;1.13;;;23.80;99.90;;;;;;4914613;29;20028;-81
2023/07/11 08:06:02;;;;;;;3.60;1.10;;;23.70;99.90;;;;;;4918440;29;20036;-82
2023/07/11 08:08:28;;;;;;;3.88;1.10;;;23.30;99.90;;;;;;4930058;29;20390;-81
2023/07/11 08:10:54;;;;;;;5.22;1.27;;;23.40;99.90;;;;;;4925865;29;20039;-79
2023/07/11 08:13:20;;;;;;;8.05;1.55;;;23.60;99.90;;;;;;4924088;29;20032;-81
2023/07/11 08:15:46;;;;;;;4.25;1.30;;;23.50;99.90;;;;;;4924626;29;20027;-81
2023/07/11 08:18:11;;;;;;;6.45;1.35;;;23.40;99.90;;;;;;4924617;29;20598;-81
2023/07/11 08:20:37;;;;;;;4.25;1.00;;;23.20;99.90;;;;;;4919863;29;20039;-81
2023/07/11 08:23:03;;;;;;;5.53;1.52;;;23.10;99.90;;;;;;4922254;29;20039;-81
2023/07/11 08:25:29;;;;;;;4.53;1.33;;;22.80;99.90;;;;;;4922528;29;20444;-78
2023/07/11 08:27:55;;;;;;;5.82;1.40;;;22.30;99.90;;;;;;4912484;29;20914;-79
2023/07/11 08:30:21;;;;;;;5.95;1.40;;;22.00;99.90;;;;;;4921202;29;20057;-79
2023/07/11 08:32:47;;;;;;;8.00;1.70;;;21.80;99.90;;;;;;4907791;29;20036;-80
2023/07/11 08:35:13;;;;;;;5.22;1.17;;;22.10;99.90;;;;;;4926829;29;20048;-81
2023/07/11 08:37:38;;;;;;;5.70;1.55;;;22.40;99.90;;;;;;4920098;29;20424;-78
2023/07/11 08:40:05;;;;;;;4.32;1.40;;;23.30;99.90;;;;;;4922282;29;20032;-78
2023/07/11 08:42:34;;;;;;;8.85;1.30;;;23.80;99.90;;;;;;4920900;29;20032;-80
2023/07/11 08:45:29;;;;;;;4.00;0.90;;;25.20;99.90;;;;;;4923330;29;20102;-81
2023/07/11 08:48:13;;;;;;;5.68;1.20;;;26.70;99.90;;;;;;4910397;29;20038;-82
2023/07/11 08:50:56;;;;;;;3.70;1.25;;;27.60;99.90;;;;;;4923591;29;20027;-79
2023/07/11 08:53:31;;;;;;;5.32;1.23;;;28.50;96.40;;;;;;4926482;28;20063;-81
2023/07/11 08:56:05;;;;;;;4.70;1.27;;;28.90;93.40;;;;;;4915753;29;20102;-83
2023/07/11 08:58:36;;;;;;;7.47;1.52;;;27.90;91.80;;;;;;4921866;29;20171;-81
2023/07/11 09:01:11;;;;;;;7.60;1.45;;;25.90;98.60;;;;;;4925455;29;20028;-82
2023/07/11 09:03:46;;;;;;;4.60;1.30;;;24.90;99.90;;;;;;4922811;29;20055;-82
2023/07/11 09:06:15;;;;;;;7.53;1.52;;;24.30;99.90;;;;;;4907379;29;20036;-83
2023/07/11 09:08:46;;;;;;;5.40;1.42;;;24.00;99.90;;;;;;4930138;29;20039;-81
2023/07/11 09:11:34;;;;;;;6.65;1.58;;;24.00;99.90;;;;;;4927873;29;20460;-81
2023/07/11 09:14:28;;;;;;;4.32;1.40;;;24.00;99.90;;;;;;4924509;29;20071;-81
2023/07/11 09:17:16;;;;;;;4.90;1.50;;;25.10;99.90;;;;;;4926212;29;20059;-79
2023/07/11 09:19:54;;;;;;;4.80;1.50;;;24.80;99.90;;;;;;4925310;29;20134;-79
2023/07/11 09:22:50;;;;;;;5.60;1.35;;;24.40;99.90;;;;;;4925631;29;20102;-81
2023/07/11 09:25:20;;;;;;;6.20;1.27;;;24.60;99.90;;;;;;4926185;29;20046;-81
2023/07/11 09:28:01;;;;;;;7.95;1.50;;;24.70;99.90;;;;;;4924483;29;20046;-79
2023/07/11 09:30:40;;;;;;;;;;;25.20;99.90;;;;;;4917939;29;20035;-81
2023/07/11 09:33:32;;;;;;;7.97;1.65;;;25.30;99.90;;;;;;4920848;29;19914;-79
2023/07/11 09:35:59;;;;;;;7.28;1.17;;;25.00;99.90;;;;;;4930834;29;20090;-83
2023/07/11 09:38:35;;;;;;;4.63;1.55;;;24.50;99.90;;;;;;4929392;29;20031;-78
2023/07/11 09:41:13;;;;;;;4.35;1.20;;;24.70;99.90;;;;;;4920099;29;20031;-83
2023/07/11 09:43:39;;;;;;;5.15;1.40;;;24.50;99.90;;;;;;4944181;29;20105;-83
2023/07/11 09:46:13;;;;;;;4.65;1.48;;;24.70;99.90;;;;;;4945132;29;20771;-79
2023/07/11 09:48:41;;;;;;;7.90;1.58;;;24.60;99.90;;;;;;4945806;28;20514;-80
2023/07/11 09:51:26;;;;;;;4.53;1.35;;;24.40;99.90;;;;;;4920375;29;20524;-79
2023/07/11 09:53:55;;;;;;;4.82;1.38;;;24.30;99.90;;;;;;4923652;29;20035;-81
2023/07/11 09:56:23;;;;;;;7.32;1.27;;;25.20;99.90;;;;;;4920416;29;20102;-81
2023/07/11 09:58:52;;;;;;;5.25;1.50;;;25.60;99.90;;;;;;4925620;29;20040;-81
2023/07/11 10:01:22;;;;;;;4.75;1.60;;;26.70;98.60;;;;;;4922636;29;20125;-79
2023/07/11 10:03:47;;;;;;;4.75;1.30;;;26.70;95.60;;;;;;4924260;29;20035;-80
2023/07/11 10:06:39;;;;;;;4.43;1.17;;;26.60;95.90;;;;;;4925225;29;20439;-79
2023/07/11 10:09:20;;;;;;;7.82;1.40;;;26.30;97.80;;;;;;4923054;29;20171;-80
2023/07/11 10:12:23;;;;;;;5.35;1.58;;;26.40;97.50;;;;;;4918614;29;20035;-80
2023/07/11 10:14:55;;;;;;;4.63;1.30;;;26.80;96.30;;;;;;4914602;29;20051;-80
2023/07/11 10:17:25;;;;;;;4.57;1.30;;;28.00;94.10;;;;;;4929025;28;20042;-81
2023/07/11 10:19:56;;;;;;;4.13;1.30;;;29.50;91.60;;;;;;4917399;29;20077;-82
2023/07/11 10:22:27;;;;;;;6.60;1.40;;;28.80;84.90;;;;;;4914935;29;20294;-80
2023/07/11 10:25:04;;;;;;;4.18;1.50;;;28.70;85.60;;;;;;4917473;29;20055;-80
2023/07/11 10:27:34;;;;;;;3.78;1.40;;;28.50;87.70;;;;;;4917672;29;20036;-82
2023/07/11 10:30:03;;;;;;;4.43;1.47;;;28.10;84.80;;;;;;4916790;29;20036;-80
2023/07/11 10:32:33;;;;;;;4.30;1.40;;;28.80;90.30;;;;;;4917274;29;20035;-80
2023/07/11 10:35:02;;;;;;;6.25;1.42;;;29.30;81.10;;;;;;4918311;29;20058;-82
2023/07/11 10:37:45;;;;;;;5.28;1.27;;;28.50;81.30;;;;;;4921262;29;20031;-82
2023/07/11 10:40:27;;;;;;;9.70;1.83;;;27.90;84.00;;;;;;4920364;29;20114;-81
2023/07/11 10:43:22;;;;;;;6.68;1.50;;;27.60;84.60;;;;;;4921439;29;20118;-80
2023/07/11 10:45:50;;;;;;;5.22;1.45;;;27.20;90.10;;;;;;4924292;29;20071;-80
2023/07/11 10:48:34;;;;;;;6.45;1.33;;;27.00;90.60;;;;;;4918707;29;20028;-80
2023/07/11 10:51:21;;;;;;;4.95;1.42;;;26.50;90.00;;;;;;4933460;29;20503;-83
2023/07/11 10:54:21;;;;;;;5.50;1.38;;;26.30;92.10;;;;;;4921622;29;20027;-81
2023/07/11 10:56:52;;;;;;;5.85;1.20;;;27.30;91.60;;;;;;4918099;29;20035;-80
2023/07/11 10:59:22;;;;;;;5.85;1.48;;;29.30;85.40;;;;;;4922863;29;20127;-78
2023/07/11 11:01:58;;;;;;;8.65;1.65;;;30.40;81.40;;;;;;4922518;29;20841;-78
2023/07/11 11:04:32;;;;;;;6.95;1.70;;;30.20;75.50;;;;;;4922443;29;20028;-78
2023/07/11 11:07:09;;;;;;;8.80;1.73;;;29.90;73.20;;;;;;4923674;29;20032;-80
2023/07/11 11:09:38;;;;;;;5.78;1.67;;;29.00;77.20;;;;;;4925504;29;20036;-81
2023/07/11 11:12:18;;;;;;;6.05;1.80;;;29.10;79.60;;;;;;4924697;29;20095;-78
2023/07/11 11:15:03;;;;;;;3.85;1.40;;;28.90;78.60;;;;;;4925783;29;20047;-80
2023/07/11 11:17:55;;;;;;;5.32;1.65;;;28.00;80.80;;;;;;4921098;29;20031;-82
2023/07/11 11:20:50;;;;;;;4.93;1.42;;;27.30;80.30;;;;;;4919790;29;20028;-80
2023/07/11 11:23:26;;;;;;;5.85;1.40;;;26.70;85.40;;;;;;4915496;29;20558;-83
2023/07/11 11:26:20;;;;;;;5.15;1.38;;;26.60;88.70;;;;;;4921433;29;20058;-80
2023/07/11 11:29:24;;;;;;;4.50;1.60;;;25.90;89.80;;;;;;4919005;29;20090;-80
2023/07/11 11:31:57;;;;;;;5.68;1.60;;;26.10;93.10;;;;;;4917506;29;20040;-83
2023/07/11 11:34:38;;;;;;;6.30;1.80;;;25.60;93.10;;;;;;4923517;29;20091;-79
2023/07/11 11:37:13;;;;;;;6.00;1.55;;;25.80;94.00;;;;;;4919696;29;20131;-82
2023/07/11 11:40:15;;;;;;;6.13;2.15;;;26.20;95.80;;;;;;4919886;29;20094;-80
2023/07/11 11:42:43;;;;;;;4.75;1.40;;;25.90;93.30;;;;;;4916054;29;20629;-82
2023/07/11 11:45:23;;;;;;;6.32;1.58;;;25.80;93.30;;;;;;4936057;29;20036;-81
2023/07/11 11:47:52;;;;;;;10.00;2.00;;;25.70;95.30;;;;;;4915823;29;20031;-80
2023/07/11 11:50:21;;;;;;;7.93;1.83;;;26.30;94.80;;;;;;4924361;29;20039;-81
2023/07/11 11:53:15;;;;;;;8.50;1.70;;;27.30;90.60;;;;;;4922688;29;20760;-78
2023/07/11 11:55:48;;;;;;;5.20;1.52;;;28.30;85.60;;;;;;4925538;29;20074;-84
2023/07/11 11:58:17;;;;;;;8.88;1.58;;;28.60;83.00;;;;;;4925019;29;20079;-82
2023/07/11 12:00:50;;;;;;;5.15;1.42;;;27.90;81.90;;;;;;4923481;29;20078;-83
2023/07/11 12:03:26;;;;;;;5.18;1.50;;;27.80;82.50;;;;;;4925170;29;20078;-83
2023/07/11 12:05:53;;;;;;;7.85;1.50;;;28.00;86.70;;;;;;4906939;29;20166;-81
2023/07/11 12:08:35;;;;;;;4.22;1.48;;;28.30;85.80;;;;;;4909553;29;20023;-78
2023/07/11 12:11:06;;;;;;;4.80;1.70;;;28.00;85.40;;;;;;4926109;29;20028;-80
2023/07/11 12:13:32;;;;;;;8.20;2.10;;;28.40;86.00;;;;;;4920031;29;20614;-84
2023/07/11 12:16:02;;;;;;;7.55;1.90;;;28.30;84.50;;;;;;4920538;29;20156;-83
2023/07/11 12:18:41;;;;;;;7.87;1.80;;;28.00;84.80;;;;;;4925834;29;20031;-83
2023/07/11 12:21:13;;;;;;;8.55;1.80;;;28.00;83.60;;;;;;4923764;29;20050;-82
2023/07/11 12:23:42;;;;;;;6.78;1.90;;;28.20;81.40;;;;;;4925783;29;20042;-83
2023/07/11 12:26:10;;;;;;;7.87;1.80;;;28.50;83.00;;;;;;4924365;29;20087;-83
2023/07/11 12:28:36;;;;;;;9.57;2.13;;;28.10;81.30;;;;;;4922077;29;20479;-82
2023/07/11 12:31:26;;;;;;;8.23;1.80;;;27.40;85.60;;;;;;4923776;29;20036;-79
2023/07/11 12:33:54;;;;;;;6.30;1.65;;;27.10;86.70;;;;;;4918880;29;20137;-80
2023/07/11 12:36:56;;;;;;;7.25;1.77;;;26.40;90.40;;;;;;4928350;29;20043;-80
2023/07/11 12:39:34;;;;;;;8.15;1.77;;;26.80;92.00;;;;;;4917285;29;20059;-78
2023/07/11 12:42:02;;;;;;;7.10;1.85;;;27.40;92.30;;;;;;4924780;29;20035;-80
2023/07/11 12:44:33;;;;;;;7.68;1.65;;;27.60;85.20;;;;;;4926830;29;20032;-83
2023/07/11 12:47:05;;;;;;;10.10;1.70;;;27.80;86.70;;;;;;4921548;29;20091;-80
2023/07/11 12:49:32;;;;;;;7.18;1.90;;;27.60;82.70;;;;;;4924068;29;20031;-79
2023/07/11 12:52:11;;;;;;;10.48;1.92;;;27.20;82.10;;;;;;4927274;29;20504;-81
2023/07/11 12:54:37;;;;;;;8.25;1.85;;;26.50;83.20;;;;;;4928680;29;20040;-80
2023/07/11 12:57:07;;;;;;;6.47;1.88;;;25.80;90.10;;;;;;4927965;29;20549;-80
2023/07/11 12:59:32;;;;;;;10.07;2.08;;;25.10;93.20;;;;;;4925787;29;20047;-81